createdAt,value
2022-10-19T00:00:43.798Z,99.99
2022-10-19T00:01:43.853Z,99.99
2022-10-19T00:02:43.783Z,99.99
2022-10-19T00:03:43.819Z,99.99
2022-10-19T00:04:43.760Z,99.99
2022-10-19T00:05:43.743Z,99.99
2022-10-19T00:06:43.736Z,99.99
2022-10-19T00:07:43.723Z,99.99
2022-10-19T00:08:43.715Z,99.99
2022-10-19T00:09:43.717Z,99.99
2022-10-19T00:10:43.690Z,99.99
2022-10-19T00:11:43.677Z,99.99
2022-10-19T00:12:43.738Z,99.99
2022-10-19T00:13:43.655Z,99.99
2022-10-19T00:14:43.648Z,99.99
2022-10-19T00:15:43.643Z,99.99
2022-10-19T00:16:43.626Z,99.99
2022-10-19T00:17:43.612Z,99.99
2022-10-19T00:18:43.605Z,99.99
2022-10-19T00:19:43.609Z,99.99
2022-10-19T00:20:43.583Z,99.99
2022-10-19T00:21:43.609Z,99.99
2022-10-19T00:22:43.563Z,99.99
2022-10-19T00:23:43.546Z,99.99
2022-10-19T00:24:43.539Z,99.99
2022-10-19T00:25:43.541Z,99.99
2022-10-19T00:26:43.517Z,99.99
2022-10-19T00:27:43.502Z,99.99
2022-10-19T00:28:43.522Z,99.99
2022-10-19T00:29:43.479Z,99.99
2022-10-19T00:30:43.512Z,99.99
2022-10-19T00:31:43.468Z,99.99
2022-10-19T00:32:43.448Z,99.99
2022-10-19T00:33:43.436Z,99.99
2022-10-19T00:34:43.433Z,99.99
2022-10-19T00:35:43.417Z,99.99
2022-10-19T00:36:43.419Z,99.99
2022-10-19T00:37:43.395Z,99.99
2022-10-19T00:38:43.388Z,99.99
2022-10-19T00:39:43.408Z,99.99
2022-10-19T00:40:43.365Z,99.99
2022-10-19T00:41:43.362Z,99.99
2022-10-19T00:42:43.344Z,99.99
2022-10-19T00:43:43.329Z,99.99
2022-10-19T00:44:43.319Z,99.99
2022-10-19T00:45:43.307Z,99.99
2022-10-19T00:46:43.303Z,99.99
2022-10-19T00:47:43.297Z,99.99
2022-10-19T00:48:43.310Z,99.99
2022-10-19T00:49:43.264Z,99.99
2022-10-19T00:50:43.256Z,99.99
2022-10-19T00:51:43.242Z,99.99
2022-10-19T00:52:43.249Z,99.99
2022-10-19T00:53:43.220Z,99.99
2022-10-19T00:54:43.224Z,99.99
2022-10-19T00:55:43.198Z,99.99
2022-10-19T00:56:43.202Z,99.99
2022-10-19T00:57:43.218Z,99.99
2022-10-19T00:58:43.172Z,99.99
2022-10-19T00:59:43.154Z,99.99
2022-10-19T01:00:43.176Z,99.99
2022-10-19T01:01:43.134Z,99.99
2022-10-19T01:02:43.138Z,99.99
2022-10-19T01:03:43.109Z,99.99
2022-10-19T01:04:43.112Z,99.99
2022-10-19T01:05:43.090Z,99.99
2022-10-19T01:06:43.132Z,99.99
2022-10-19T01:07:43.068Z,99.99
2022-10-19T01:08:43.081Z,99.99
2022-10-19T01:09:43.048Z,99.99
2022-10-19T01:10:43.037Z,99.99
2022-10-19T01:11:43.022Z,99.99
2022-10-19T01:12:43.017Z,99.99
2022-10-19T01:13:43.002Z,99.99
2022-10-19T01:14:43.003Z,99.99
2022-10-19T01:15:43.064Z,99.99
2022-10-19T01:16:42.973Z,99.99
2022-10-19T01:17:42.962Z,99.99
2022-10-19T01:18:42.952Z,99.99
2022-10-19T01:19:42.943Z,99.99
2022-10-19T01:20:42.928Z,99.99
2022-10-19T01:21:42.927Z,99.99
2022-10-19T01:22:42.909Z,99.99
2022-10-19T01:23:42.893Z,99.99
2022-10-19T01:24:42.911Z,99.99
2022-10-19T01:25:42.870Z,99.99
2022-10-19T01:26:42.861Z,99.99
2022-10-19T01:27:42.850Z,99.99
2022-10-19T01:28:42.930Z,99.99
2022-10-19T01:29:42.839Z,99.99
2022-10-19T01:30:42.819Z,99.99
2022-10-19T01:31:42.808Z,99.99
2022-10-19T01:32:42.797Z,99.99
2022-10-19T01:33:42.783Z,99.99
2022-10-19T01:34:42.791Z,99.99
2022-10-19T01:35:42.764Z,99.99
2022-10-19T01:36:42.758Z,99.99
2022-10-19T01:37:42.739Z,99.99
2022-10-19T01:38:42.744Z,99.99
2022-10-19T01:39:45.283Z,99.99
2022-10-19T01:40:42.725Z,99.99
2022-10-19T01:41:42.695Z,99.99
2022-10-19T01:42:42.752Z,99.99
2022-10-19T01:43:42.681Z,99.99
2022-10-19T01:44:42.670Z,99.99
2022-10-19T01:45:42.674Z,99.99
2022-10-19T01:46:42.653Z,99.99
2022-10-19T01:47:42.647Z,99.99
2022-10-19T01:48:42.622Z,99.99
2022-10-19T01:49:42.608Z,99.99
2022-10-19T01:50:42.604Z,99.99
2022-10-19T01:51:42.605Z,99.99
2022-10-19T01:52:42.578Z,99.99
2022-10-19T01:53:42.565Z,99.99
2022-10-19T01:54:42.556Z,99.99
2022-10-19T01:55:42.541Z,99.99
2022-10-19T01:56:42.536Z,99.99
2022-10-19T01:57:42.533Z,99.99
2022-10-19T01:58:42.513Z,99.99
2022-10-19T01:59:42.497Z,99.99
2022-10-19T02:00:42.520Z,99.99
2022-10-19T02:01:42.476Z,99.99
2022-10-19T02:02:42.472Z,99.99
2022-10-19T02:03:42.470Z,99.99
2022-10-19T02:04:42.447Z,99.99
2022-10-19T02:05:42.430Z,99.99
2022-10-19T02:06:42.431Z,99.99
2022-10-19T02:07:42.409Z,99.99
2022-10-19T02:08:42.401Z,99.99
2022-10-19T02:09:42.401Z,99.99
2022-10-19T02:10:42.383Z,99.99
2022-10-19T02:11:44.180Z,99.99
2022-10-19T02:12:42.364Z,99.99
2022-10-19T02:13:42.347Z,99.99
2022-10-19T02:14:42.345Z,99.99
2022-10-19T02:15:42.377Z,99.99
2022-10-19T02:16:42.320Z,99.99
2022-10-19T02:17:42.304Z,99.99
2022-10-19T02:18:42.303Z,99.99
2022-10-19T02:19:42.281Z,99.99
2022-10-19T02:20:42.269Z,99.99
2022-10-19T02:21:42.256Z,99.99
2022-10-19T02:22:42.253Z,99.99
2022-10-19T02:23:42.246Z,99.99
2022-10-19T02:24:42.238Z,99.99
2022-10-19T02:25:42.214Z,99.99
2022-10-19T02:26:42.207Z,99.99
2022-10-19T02:27:42.194Z,99.99
2022-10-19T02:28:42.199Z,99.99
2022-10-19T02:29:42.170Z,99.99
2022-10-19T02:30:42.164Z,99.99
2022-10-19T02:31:42.149Z,99.99
2022-10-19T02:32:42.143Z,99.99
2022-10-19T02:33:42.130Z,99.99
2022-10-19T02:34:42.132Z,99.99
2022-10-19T02:35:42.105Z,99.99
2022-10-19T02:36:42.095Z,99.99
2022-10-19T02:37:42.083Z,99.99
2022-10-19T02:38:42.074Z,99.99
2022-10-19T02:39:42.072Z,99.99
2022-10-19T02:40:42.053Z,99.99
2022-10-19T02:41:42.039Z,99.99
2022-10-19T02:42:42.034Z,99.99
2022-10-19T02:43:42.018Z,99.99
2022-10-19T02:44:42.016Z,99.99
2022-10-19T02:45:42.007Z,99.99
2022-10-19T02:46:42.069Z,99.99
2022-10-19T02:47:41.978Z,99.99
2022-10-19T02:48:41.970Z,99.99
2022-10-19T02:49:41.971Z,99.99
2022-10-19T02:50:41.944Z,99.99
2022-10-19T02:51:41.929Z,99.99
2022-10-19T02:52:41.920Z,99.99
2022-10-19T02:53:41.912Z,99.99
2022-10-19T02:54:41.904Z,99.99
2022-10-19T02:55:41.922Z,99.99
2022-10-19T02:56:41.877Z,99.99
2022-10-19T02:57:41.865Z,99.99
2022-10-19T02:58:41.856Z,99.99
2022-10-19T02:59:41.842Z,99.99
2022-10-19T03:00:41.895Z,99.99
2022-10-19T03:01:41.831Z,99.99
2022-10-19T03:02:41.818Z,99.99
2022-10-19T03:03:41.796Z,99.99
2022-10-19T03:04:41.860Z,99.99
2022-10-19T03:05:41.776Z,99.99
2022-10-19T03:06:41.771Z,99.99
2022-10-19T03:07:41.763Z,99.99
2022-10-19T03:08:41.745Z,99.99
2022-10-19T03:09:41.732Z,99.99
2022-10-19T03:10:41.724Z,99.99
2022-10-19T03:11:41.710Z,99.99
2022-10-19T03:12:41.713Z,99.99
2022-10-19T03:13:41.717Z,99.99
2022-10-19T03:14:41.683Z,99.99
2022-10-19T03:15:41.666Z,99.99
2022-10-19T03:16:41.660Z,99.99
2022-10-19T03:17:41.659Z,99.99
2022-10-19T03:18:41.639Z,99.99
2022-10-19T03:19:41.622Z,99.99
2022-10-19T03:20:41.612Z,99.99
2022-10-19T03:21:41.601Z,99.99
2022-10-19T03:22:41.664Z,99.99
2022-10-19T03:23:41.581Z,99.99
2022-10-19T03:24:41.574Z,99.99
2022-10-19T03:25:41.556Z,99.99
2022-10-19T03:26:41.550Z,99.99
2022-10-19T03:27:41.542Z,99.99
2022-10-19T03:28:41.601Z,99.99
2022-10-19T03:29:41.515Z,99.99
2022-10-19T03:30:41.506Z,99.99
2022-10-19T03:31:41.508Z,99.99
2022-10-19T03:32:41.486Z,99.99
2022-10-19T03:33:41.469Z,99.99
2022-10-19T03:34:41.476Z,99.99
2022-10-19T03:35:41.458Z,99.99
2022-10-19T03:36:41.441Z,99.99
2022-10-19T03:37:41.429Z,99.99
2022-10-19T03:38:41.417Z,99.99
2022-10-19T03:39:41.414Z,99.99
2022-10-19T03:40:41.408Z,99.99
2022-10-19T03:41:41.391Z,99.99
2022-10-19T03:42:41.371Z,99.99
2022-10-19T03:43:41.371Z,99.99
2022-10-19T03:44:41.375Z,99.99
2022-10-19T03:45:41.341Z,99.99
2022-10-19T03:46:41.332Z,99.99
2022-10-19T03:47:41.320Z,99.99
2022-10-19T03:48:41.310Z,99.99
2022-10-19T03:49:41.297Z,99.99
2022-10-19T03:50:41.305Z,99.99
2022-10-19T03:51:41.380Z,99.99
2022-10-19T03:52:41.264Z,99.99
2022-10-19T03:53:41.258Z,99.99
2022-10-19T03:54:41.238Z,99.99
2022-10-19T03:55:41.234Z,99.99
2022-10-19T03:56:41.228Z,99.99
2022-10-19T03:57:41.210Z,99.99
2022-10-19T03:58:41.197Z,99.99
2022-10-19T03:59:41.197Z,99.99
2022-10-19T04:00:41.210Z,99.99
2022-10-19T04:01:41.178Z,99.99
2022-10-19T04:02:41.151Z,99.99
2022-10-19T04:03:41.183Z,99.99
2022-10-19T04:04:41.131Z,99.99
2022-10-19T04:05:41.126Z,99.99
2022-10-19T04:06:41.107Z,99.99
2022-10-19T04:07:41.113Z,99.99
2022-10-19T04:08:41.084Z,99.99
2022-10-19T04:09:41.077Z,99.99
2022-10-19T04:10:41.063Z,99.99
2022-10-19T04:11:41.056Z,99.99
2022-10-19T04:12:41.043Z,99.99
2022-10-19T04:13:41.045Z,99.99
2022-10-19T04:14:56.193Z,99.99
2022-10-19T04:15:41.033Z,99.99
2022-10-19T04:16:41.003Z,99.99
2022-10-19T04:17:40.991Z,99.99
2022-10-19T04:18:40.978Z,99.99
2022-10-19T04:19:40.972Z,99.99
2022-10-19T04:20:40.956Z,99.99
2022-10-19T04:21:40.969Z,99.99
2022-10-19T04:22:40.933Z,99.99
2022-10-19T04:23:40.930Z,99.99
2022-10-19T04:24:40.911Z,99.99
2022-10-19T04:25:40.901Z,99.99
2022-10-19T04:26:40.904Z,99.99
2022-10-19T04:27:40.879Z,99.99
2022-10-19T04:28:40.923Z,99.99
2022-10-19T04:29:40.863Z,99.99
2022-10-19T04:30:40.847Z,99.99
2022-10-19T04:31:40.848Z,99.99
2022-10-19T04:32:40.827Z,99.99
2022-10-19T04:33:40.865Z,99.99
2022-10-19T04:34:40.804Z,99.99
2022-10-19T04:35:40.796Z,99.99
2022-10-19T04:36:40.795Z,99.99
2022-10-19T04:37:40.774Z,99.99
2022-10-19T04:38:40.760Z,99.99
2022-10-19T04:39:40.754Z,99.99
2022-10-19T04:40:40.740Z,99.99
2022-10-19T04:41:40.731Z,99.99
2022-10-19T04:42:40.727Z,99.99
2022-10-19T04:43:40.712Z,99.99
2022-10-19T04:44:40.694Z,99.99
2022-10-19T04:45:40.684Z,99.99
2022-10-19T04:46:40.676Z,99.99
2022-10-19T04:47:40.668Z,99.99
2022-10-19T04:48:40.656Z,99.99
2022-10-19T04:49:40.641Z,99.99
2022-10-19T04:50:40.627Z,99.99
2022-10-19T04:51:40.620Z,99.99
2022-10-19T04:52:40.621Z,99.99
2022-10-19T04:53:40.602Z,99.99
2022-10-19T04:54:40.587Z,99.99
2022-10-19T04:55:40.582Z,99.99
2022-10-19T04:56:40.564Z,99.99
2022-10-19T04:57:40.578Z,99.99
2022-10-19T04:58:40.568Z,99.99
2022-10-19T04:59:40.536Z,99.99
2022-10-19T05:00:40.617Z,99.99
2022-10-19T05:01:46.268Z,99.99
2022-10-19T05:02:40.505Z,99.99
2022-10-19T05:03:40.510Z,99.99
2022-10-19T05:04:43.027Z,99.99
2022-10-19T05:05:40.468Z,99.99
2022-10-19T05:06:40.491Z,99.99
2022-10-19T05:07:40.448Z,99.99
2022-10-19T05:08:40.434Z,99.99
2022-10-19T05:09:40.433Z,99.99
2022-10-19T05:10:43.145Z,99.99
2022-10-19T05:11:40.411Z,99.99
2022-10-19T05:12:40.363Z,99.99
2022-10-19T05:13:40.383Z,99.99
2022-10-19T05:14:42.719Z,99.99
2022-10-19T05:15:40.343Z,99.99
2022-10-19T05:16:40.366Z,99.99
2022-10-19T05:17:40.345Z,99.99
2022-10-19T05:18:40.325Z,99.99
2022-10-19T05:19:40.331Z,99.99
2022-10-19T05:20:40.305Z,99.99
2022-10-19T05:21:40.311Z,99.99
2022-10-19T05:22:40.301Z,99.99
2022-10-19T05:23:40.275Z,99.99
2022-10-19T05:24:40.219Z,99.99
2022-10-19T05:25:40.205Z,99.99
2022-10-19T05:26:40.187Z,99.99
2022-10-19T05:27:40.200Z,99.99
2022-10-19T05:28:40.230Z,99.99
2022-10-19T05:29:40.160Z,99.99
2022-10-19T05:30:40.142Z,99.99
2022-10-19T05:31:40.132Z,99.99
2022-10-19T05:32:40.149Z,99.99
2022-10-19T05:33:40.149Z,99.99
2022-10-19T05:34:40.099Z,99.99
2022-10-19T05:35:40.091Z,99.99
2022-10-19T05:36:40.083Z,99.99
2022-10-19T05:37:40.070Z,99.99
2022-10-19T05:38:40.080Z,99.99
2022-10-19T05:39:40.051Z,99.99
2022-10-19T05:40:40.034Z,99.99
2022-10-19T05:41:40.027Z,99.99
2022-10-19T05:42:40.017Z,99.99
2022-10-19T05:43:40.002Z,99.99
2022-10-19T05:44:40.049Z,99.99
2022-10-19T05:45:39.994Z,99.99
2022-10-19T05:46:39.967Z,99.99
2022-10-19T05:47:39.961Z,99.99
2022-10-19T05:48:39.953Z,99.99
2022-10-19T05:49:39.941Z,99.99
2022-10-19T05:50:39.942Z,99.99
2022-10-19T05:51:39.919Z,99.99
2022-10-19T05:52:39.905Z,99.99
2022-10-19T05:53:39.908Z,99.99
2022-10-19T05:54:39.883Z,99.99
2022-10-19T05:55:39.892Z,99.99
2022-10-19T05:56:39.864Z,99.99
2022-10-19T05:57:39.851Z,99.99
2022-10-19T05:58:39.871Z,99.99
2022-10-19T05:59:39.832Z,99.99
2022-10-19T06:00:39.842Z,99.99
2022-10-19T06:01:39.849Z,99.99
2022-10-19T06:02:39.796Z,99.99
2022-10-19T06:03:39.789Z,99.99
2022-10-19T06:04:39.775Z,99.99
2022-10-19T06:05:39.798Z,99.99
2022-10-19T06:06:39.752Z,99.99
2022-10-19T06:07:39.746Z,99.99
2022-10-19T06:08:39.730Z,99.99
2022-10-19T06:09:39.725Z,99.99
2022-10-19T06:10:39.707Z,99.99
2022-10-19T06:11:39.734Z,99.99
2022-10-19T06:12:39.686Z,99.99
2022-10-19T06:13:39.682Z,99.99
2022-10-19T06:14:39.703Z,99.99
2022-10-19T06:15:39.660Z,99.99
2022-10-19T06:16:39.648Z,99.99
2022-10-19T06:17:39.660Z,99.99
2022-10-19T06:18:39.622Z,99.99
2022-10-19T06:19:39.616Z,99.99
2022-10-19T06:20:39.603Z,99.99
2022-10-19T06:21:41.953Z,99.99
2022-10-19T06:22:39.609Z,99.99
2022-10-19T06:23:39.575Z,99.99
2022-10-19T06:24:39.559Z,99.99
2022-10-19T06:25:39.576Z,99.99
2022-10-19T06:26:39.536Z,99.99
2022-10-19T06:27:39.575Z,99.99
2022-10-19T06:28:39.531Z,99.99
2022-10-19T06:29:39.507Z,99.99
2022-10-19T06:30:39.572Z,99.99
2022-10-19T06:31:39.491Z,99.99
2022-10-19T06:32:39.493Z,99.99
2022-10-19T06:33:39.519Z,99.99
2022-10-19T06:34:39.479Z,99.99
2022-10-19T06:35:39.441Z,99.99
2022-10-19T06:36:39.428Z,99.99
2022-10-19T06:37:39.419Z,99.99
2022-10-19T06:38:39.407Z,99.99
2022-10-19T06:39:39.445Z,99.99
2022-10-19T06:40:39.393Z,99.99
2022-10-19T06:41:39.391Z,99.99
2022-10-19T06:42:39.364Z,99.99
2022-10-19T06:43:39.362Z,99.99
2022-10-19T06:44:39.340Z,99.99
2022-10-19T06:45:39.337Z,99.99
2022-10-19T06:46:39.331Z,99.99
2022-10-19T06:47:39.568Z,99.99
2022-10-19T06:48:39.316Z,99.99
2022-10-19T06:49:39.292Z,99.99
2022-10-19T06:50:39.281Z,99.99
2022-10-19T06:51:39.279Z,99.99
2022-10-19T06:52:39.258Z,99.99
2022-10-19T06:53:39.254Z,99.99
2022-10-19T06:54:39.233Z,99.99
2022-10-19T06:55:39.227Z,99.99
2022-10-19T06:56:39.265Z,99.99
2022-10-19T06:57:39.219Z,99.99
2022-10-19T06:58:39.188Z,99.99
2022-10-19T06:59:39.176Z,99.99
2022-10-19T07:00:39.223Z,99.99
2022-10-19T07:01:39.159Z,99.99
2022-10-19T07:02:39.147Z,99.99
2022-10-19T07:03:39.148Z,99.99
2022-10-19T07:04:39.126Z,99.99
2022-10-19T07:05:39.117Z,99.99
2022-10-19T07:06:39.109Z,99.99
2022-10-19T07:07:39.121Z,99.99
2022-10-19T07:08:39.090Z,99.99
2022-10-19T07:09:39.083Z,99.99
2022-10-19T07:10:39.068Z,99.99
2022-10-19T07:11:44.790Z,99.99
2022-10-19T07:12:39.057Z,99.99
2022-10-19T07:13:39.030Z,99.99
2022-10-19T07:14:39.028Z,99.99
2022-10-19T07:15:39.007Z,99.99
2022-10-19T07:16:39.009Z,99.99
2022-10-19T07:17:38.984Z,99.99
2022-10-19T07:18:38.970Z,99.99
2022-10-19T07:19:38.969Z,99.99
2022-10-19T07:20:38.950Z,99.99
2022-10-19T07:21:38.941Z,99.99
2022-10-19T07:22:38.930Z,99.99
2022-10-19T07:23:38.925Z,99.99
2022-10-19T07:24:38.914Z,99.99
2022-10-19T07:25:38.904Z,99.99
2022-10-19T07:26:38.885Z,99.99
2022-10-19T07:27:39.240Z,99.99
2022-10-19T07:28:38.861Z,99.99
2022-10-19T07:29:38.853Z,99.99
2022-10-19T07:30:38.850Z,99.99
2022-10-19T07:31:38.832Z,99.99
2022-10-19T07:32:39.122Z,99.99
2022-10-19T07:33:38.809Z,99.99
2022-10-19T07:34:38.801Z,99.99
2022-10-19T07:35:38.801Z,99.99
2022-10-19T07:36:38.777Z,99.99
2022-10-19T07:37:38.768Z,99.99
2022-10-19T07:38:37.748Z,99.99
2022-10-19T07:39:38.743Z,99.99
2022-10-19T07:40:39.478Z,99.99
2022-10-19T07:41:38.731Z,99.99
2022-10-19T07:42:38.711Z,99.99
2022-10-19T07:43:38.701Z,99.99
2022-10-19T07:44:38.690Z,99.99
2022-10-19T07:45:38.681Z,99.99
2022-10-19T07:46:38.687Z,99.99
2022-10-19T07:47:38.657Z,99.99
2022-10-19T07:48:38.644Z,99.99
2022-10-19T07:49:38.648Z,99.99
2022-10-19T07:50:38.624Z,99.99
2022-10-19T07:51:38.616Z,99.99
2022-10-19T07:52:38.986Z,99.99
2022-10-19T07:53:38.595Z,99.99
2022-10-19T07:54:38.581Z,99.99
2022-10-19T07:55:38.571Z,99.99
2022-10-19T07:56:38.565Z,99.99
2022-10-19T07:57:38.548Z,99.99
2022-10-19T07:58:38.543Z,99.99
2022-10-19T07:59:38.528Z,99.99
2022-10-19T08:01:37.573Z,99.99
2022-10-19T08:02:54.769Z,99.99
2022-10-19T08:05:37.462Z,99.99
2022-10-19T08:06:38.469Z,99.99
2022-10-19T08:07:38.443Z,99.99
2022-10-19T08:08:38.460Z,99.99
2022-10-19T08:09:52.747Z,99.99
2022-10-19T08:10:38.415Z,99.99
2022-10-19T08:11:38.394Z,99.99
2022-10-19T08:12:38.400Z,99.99
2022-10-19T08:13:38.371Z,99.99
2022-10-19T08:14:38.368Z,99.99
2022-10-19T08:15:38.354Z,99.99
2022-10-19T08:16:38.341Z,99.99
2022-10-19T08:17:38.336Z,99.99
2022-10-19T08:18:38.333Z,99.99
2022-10-19T08:19:38.303Z,99.99
2022-10-19T08:20:38.300Z,99.99
2022-10-19T08:21:38.288Z,99.99
2022-10-19T08:22:38.274Z,99.99
2022-10-19T08:23:38.285Z,99.99
2022-10-19T08:24:38.260Z,99.99
2022-10-19T08:25:38.241Z,99.99
2022-10-19T08:26:38.248Z,99.99
2022-10-19T08:27:38.267Z,99.99
2022-10-19T08:28:38.227Z,99.99
2022-10-19T08:29:38.206Z,99.99
2022-10-19T08:30:38.188Z,99.99
2022-10-19T08:31:38.186Z,99.99
2022-10-19T08:32:38.164Z,99.99
2022-10-19T08:33:38.175Z,99.99
2022-10-19T08:34:38.141Z,99.99
2022-10-19T08:35:38.132Z,99.89
2022-10-19T08:36:38.159Z,99.99
2022-10-19T08:37:45.008Z,99.99
2022-10-19T08:38:38.105Z,99.99
2022-10-19T08:39:38.126Z,99.99
2022-10-19T08:40:38.078Z,99.99
2022-10-19T08:41:38.164Z,99.99
2022-10-19T08:42:38.056Z,99.99
2022-10-19T08:43:38.044Z,99.99
2022-10-19T08:44:38.038Z,99.99
2022-10-19T08:45:38.072Z,99.99
2022-10-19T08:46:38.012Z,99.99
2022-10-19T08:47:38.300Z,99.99
2022-10-19T08:48:37.994Z,99.99
2022-10-19T08:49:37.988Z,99.99
2022-10-19T08:50:37.968Z,99.99
2022-10-19T08:51:37.954Z,99.69
2022-10-19T08:52:37.945Z,99.79
2022-10-19T08:53:37.938Z,99.49
2022-10-19T08:54:38.124Z,99.29
2022-10-19T08:55:37.921Z,99.99
2022-10-19T08:56:50.493Z,99.79
2022-10-19T08:57:37.894Z,99.29
2022-10-19T08:58:37.881Z,99.99
2022-10-19T08:59:37.870Z,99.99
2022-10-19T09:00:37.981Z,99.99
2022-10-19T09:01:37.900Z,99.99
2022-10-19T09:02:37.835Z,99.99
2022-10-19T09:03:55.043Z,99.34
2022-10-19T09:04:37.821Z,99.65
2022-10-19T09:05:37.805Z,99.44
2022-10-19T09:06:37.793Z,99.99
2022-10-19T09:07:37.778Z,99.99
2022-10-19T09:08:37.791Z,99.95
2022-10-19T09:09:37.793Z,99.34
2022-10-19T09:10:37.749Z,98.63
2022-10-19T09:11:37.735Z,97.96
2022-10-19T09:12:37.890Z,99.29
2022-10-19T09:13:41.593Z,99.99
2022-10-19T09:14:37.741Z,99.99
2022-10-19T09:15:37.688Z,99.65
2022-10-19T09:16:37.683Z,99.24
2022-10-19T09:17:37.667Z,99.44
2022-10-19T09:18:37.665Z,99.50
2022-10-19T09:19:37.680Z,98.48
2022-10-19T09:20:37.640Z,98.58
2022-10-19T09:21:45.937Z,98.89
2022-10-19T09:22:37.720Z,98.27
2022-10-19T09:23:37.607Z,99.40
2022-10-19T09:24:37.598Z,99.50
2022-10-19T09:25:37.607Z,98.99
2022-10-19T09:26:37.573Z,99.09
2022-10-19T09:27:37.566Z,99.29
2022-10-19T09:28:39.854Z,99.60
2022-10-19T09:29:37.535Z,99.91
2022-10-19T09:30:37.564Z,99.60
2022-10-19T09:31:40.483Z,99.25
2022-10-19T09:32:38.004Z,99.04
2022-10-19T09:33:37.493Z,98.54
2022-10-19T09:34:37.486Z,98.64
2022-10-19T09:35:37.482Z,98.54
2022-10-19T09:36:50.133Z,98.90
2022-10-19T09:37:37.458Z,98.90
2022-10-19T09:38:37.479Z,97.27
2022-10-19T09:39:37.427Z,97.57
2022-10-19T09:40:37.421Z,97.06
2022-10-19T09:41:37.402Z,96.96
2022-10-19T09:42:37.615Z,97.47
2022-10-19T09:43:37.394Z,97.67
2022-10-19T09:44:37.409Z,98.24
2022-10-19T09:45:37.362Z,96.92
2022-10-19T09:46:38.898Z,96.92
2022-10-19T09:47:37.701Z,97.22
2022-10-19T09:48:37.334Z,96.26
2022-10-19T09:49:37.319Z,96.00
2022-10-19T09:50:37.335Z,96.36
2022-10-19T09:51:37.298Z,94.73
2022-10-19T09:52:37.291Z,95.65
2022-10-19T09:53:37.277Z,95.54
2022-10-19T09:54:37.290Z,95.00
2022-10-19T09:55:37.354Z,94.59
2022-10-19T09:56:37.268Z,94.28
2022-10-19T09:57:37.414Z,93.77
2022-10-19T09:58:37.225Z,93.16
2022-10-19T09:59:37.212Z,94.34
2022-10-19T10:00:37.210Z,94.13
2022-10-19T10:01:40.164Z,94.44
2022-10-19T10:02:37.755Z,93.83
2022-10-19T10:03:37.167Z,93.73
2022-10-19T10:04:37.195Z,92.30
2022-10-19T10:05:37.144Z,93.02
2022-10-19T10:06:37.159Z,93.43
2022-10-19T10:07:37.358Z,93.02
2022-10-19T10:08:37.160Z,92.30
2022-10-19T10:09:37.102Z,92.51
2022-10-19T10:10:37.093Z,92.00
2022-10-19T10:11:37.104Z,93.02
2022-10-19T10:12:37.132Z,93.73
2022-10-19T10:13:37.061Z,92.41
2022-10-19T10:14:37.055Z,91.25
2022-10-19T10:15:37.038Z,91.19
2022-10-19T10:16:37.055Z,92.00
2022-10-19T10:17:37.019Z,91.96
2022-10-19T10:18:37.010Z,91.55
2022-10-19T10:19:36.995Z,90.39
2022-10-19T10:20:36.990Z,90.39
2022-10-19T10:21:36.974Z,90.49
2022-10-19T10:22:37.229Z,91.61
2022-10-19T10:23:36.952Z,91.30
2022-10-19T10:24:36.942Z,90.44
2022-10-19T10:25:36.931Z,91.61
2022-10-19T10:26:36.923Z,91.41
2022-10-19T10:27:37.262Z,91.91
2022-10-19T10:28:36.930Z,89.94
2022-10-19T10:29:36.925Z,89.74
2022-10-19T10:30:36.895Z,89.43
2022-10-19T10:31:36.876Z,88.89
2022-10-19T10:32:37.142Z,88.18
2022-10-19T10:33:45.312Z,87.97
2022-10-19T10:34:49.422Z,87.26
2022-10-19T10:35:36.828Z,87.57
2022-10-19T10:36:36.814Z,88.89
2022-10-19T10:37:37.131Z,88.48
2022-10-19T10:38:36.796Z,87.57
2022-10-19T10:39:36.798Z,87.97
2022-10-19T10:40:36.772Z,88.52
2022-10-19T10:41:36.776Z,87.81
2022-10-19T10:42:37.190Z,88.62
2022-10-19T10:43:36.739Z,89.94
2022-10-19T10:44:36.773Z,89.48
2022-10-19T10:45:36.723Z,89.88
2022-10-19T10:46:36.710Z,89.58
2022-10-19T10:47:36.994Z,90.49
2022-10-19T10:48:36.745Z,90.90
2022-10-19T10:49:36.677Z,91.45
2022-10-19T10:50:36.674Z,91.45
2022-10-19T10:51:36.651Z,91.55
2022-10-19T10:52:37.157Z,92.22
2022-10-19T10:53:36.638Z,91.61
2022-10-19T10:54:36.620Z,91.91
2022-10-19T10:55:36.608Z,91.51
2022-10-19T10:56:36.601Z,91.36
2022-10-19T10:57:36.596Z,91.47
2022-10-19T10:58:36.589Z,90.14
2022-10-19T10:59:37.797Z,90.14
2022-10-19T11:00:36.558Z,88.52
2022-10-19T11:01:36.587Z,89.03
2022-10-19T11:02:36.546Z,90.14
2022-10-19T11:03:36.521Z,88.21
2022-10-19T11:04:36.515Z,89.03
2022-10-19T11:05:36.506Z,88.32
2022-10-19T11:06:37.654Z,87.97
2022-10-19T11:07:36.988Z,87.46
2022-10-19T11:08:36.520Z,87.57
2022-10-19T11:09:36.462Z,87.77
2022-10-19T11:10:36.455Z,87.93
2022-10-19T11:11:36.438Z,87.73
2022-10-19T11:12:36.441Z,87.22
2022-10-19T11:13:36.418Z,87.12
2022-10-19T11:14:36.411Z,87.32
2022-10-19T11:15:36.404Z,86.98
2022-10-19T11:16:36.387Z,86.07
2022-10-19T11:17:36.707Z,86.07
2022-10-19T11:18:36.403Z,86.47
2022-10-19T11:19:36.356Z,86.88
2022-10-19T11:20:36.348Z,87.18
2022-10-19T11:21:36.331Z,86.37
2022-10-19T11:22:36.623Z,86.33
2022-10-19T11:23:36.310Z,86.83
2022-10-19T11:24:36.300Z,85.58
2022-10-19T11:25:36.286Z,83.35
2022-10-19T11:26:36.288Z,84.56
2022-10-19T11:27:36.809Z,83.45
2022-10-19T11:28:36.263Z,82.97
2022-10-19T11:29:36.240Z,81.01
2022-10-19T11:30:40.193Z,80.87
2022-10-19T11:31:36.226Z,79.75
2022-10-19T11:32:36.942Z,78.30
2022-10-19T11:33:36.228Z,78.20
2022-10-19T11:34:36.190Z,78.47
2022-10-19T11:35:36.172Z,77.62
2022-10-19T11:36:36.168Z,77.22
2022-10-19T11:37:37.534Z,77.22
2022-10-19T11:38:36.151Z,76.92
2022-10-19T11:39:36.186Z,76.18
2022-10-19T11:40:36.123Z,73.85
2022-10-19T11:41:36.115Z,75.71
2022-10-19T11:42:36.132Z,75.10
2022-10-19T11:43:36.083Z,75.40
2022-10-19T11:44:36.099Z,76.28
2022-10-19T11:45:36.069Z,72.88
2022-10-19T11:46:36.080Z,69.96
2022-10-19T11:47:36.356Z,69.89
2022-10-19T11:48:38.377Z,70.50
2022-10-19T11:49:36.024Z,70.36
2022-10-19T11:50:36.034Z,68.71
2022-10-19T11:51:35.998Z,69.02
2022-10-19T11:52:36.307Z,69.56
2022-10-19T11:53:35.981Z,69.79
2022-10-19T11:54:35.969Z,70.53
2022-10-19T11:55:35.959Z,71.64
2022-10-19T11:56:58.091Z,70.02
2022-10-19T11:57:36.275Z,69.85
2022-10-19T11:58:35.929Z,71.60
2022-10-19T11:59:35.922Z,71.80
2022-10-19T12:00:39.884Z,72.34
2022-10-19T12:01:35.961Z,73.05
2022-10-19T12:02:36.241Z,73.65
2022-10-19T12:03:35.866Z,74.76
2022-10-19T12:04:35.861Z,73.05
2022-10-19T12:05:35.905Z,73.35
2022-10-19T12:06:35.839Z,73.58
2022-10-19T12:07:35.855Z,73.58
2022-10-19T12:08:35.838Z,73.79
2022-10-19T12:09:35.805Z,74.22
2022-10-19T12:10:35.802Z,74.84
2022-10-19T12:11:35.781Z,75.04
2022-10-19T12:12:36.024Z,74.84
2022-10-19T12:13:35.776Z,74.53
2022-10-19T12:14:35.752Z,75.13
2022-10-19T12:15:35.742Z,73.82
2022-10-19T12:16:35.730Z,74.29
2022-10-19T12:17:36.167Z,72.17
2022-10-19T12:18:35.710Z,72.78
2022-10-19T12:19:35.692Z,73.28
2022-10-19T12:20:35.688Z,73.75
2022-10-19T12:21:35.670Z,73.22
2022-10-19T12:22:35.721Z,70.86
2022-10-19T12:23:35.669Z,70.86
2022-10-19T12:24:35.644Z,69.95
2022-10-19T12:25:35.630Z,70.56
2022-10-19T12:26:35.621Z,69.99
2022-10-19T12:27:35.955Z,69.09
2022-10-19T12:28:35.601Z,67.88
2022-10-19T12:29:35.589Z,67.80
2022-10-19T12:30:35.574Z,69.12
2022-10-19T12:31:35.565Z,69.85
2022-10-19T12:32:35.552Z,69.95
2022-10-19T12:33:35.569Z,71.47
2022-10-19T12:34:35.532Z,71.20
2022-10-19T12:35:35.536Z,70.89
2022-10-19T12:36:35.509Z,70.69
2022-10-19T12:37:35.883Z,71.40
2022-10-19T12:38:35.487Z,72.75
2022-10-19T12:39:35.509Z,73.05
2022-10-19T12:40:35.467Z,73.45
2022-10-19T12:41:35.460Z,73.35
2022-10-19T12:42:35.450Z,72.95
2022-10-19T12:43:35.436Z,73.45
2022-10-19T12:44:35.450Z,74.90
2022-10-19T12:45:35.417Z,74.29
2022-10-19T12:46:35.400Z,73.89
2022-10-19T12:47:35.748Z,74.19
2022-10-19T12:48:35.384Z,74.13
2022-10-19T12:49:35.395Z,73.82
2022-10-19T12:50:37.783Z,75.13
2022-10-19T12:51:35.355Z,74.53
2022-10-19T12:52:35.819Z,72.71
2022-10-19T12:53:35.330Z,74.13
2022-10-19T12:54:35.342Z,74.53
2022-10-19T12:55:35.309Z,74.73